sensor_id;sensor_type;location;lat;lon;timestamp;P1;durP1;ratioP1;P2;durP2;ratioP2
50531;SDS011;36483;37.396;-122.212;2023-06-10T00:00:43;3.22;;;0.93;;
50531;SDS011;36483;37.396;-122.212;2023-06-10T00:03:10;2.20;;;1.20;;
50531;SDS011;36483;37.396;-122.212;2023-06-10T00:05:37;3.00;;;1.00;;
50531;SDS011;36483;37.396;-122.212;2023-06-10T00:08:04;2.17;;;1.10;;
50531;SDS011;36483;37.396;-122.212;2023-06-10T00:10:34;1.95;;;1.00;;
50531;SDS011;36483;37.396;-122.212;2023-06-10T00:13:01;4.32;;;1.20;;
50531;SDS011;36483;37.396;-122.212;2023-06-10T00:15:29;1.75;;;1.13;;
50531;SDS011;36483;37.396;-122.212;2023-06-10T00:17:55;1.75;;;1.10;;
50531;SDS011;36483;37.396;-122.212;2023-06-10T00:20:21;3.63;;;1.20;;
50531;SDS011;36483;37.396;-122.212;2023-06-10T00:22:49;2.28;;;1.00;;
50531;SDS011;36483;37.396;-122.212;2023-06-10T00:25:16;3.03;;;1.00;;
50531;SDS011;36483;37.396;-122.212;2023-06-10T00:27:42;2.45;;;0.80;;
50531;SDS011;36483;37.396;-122.212;2023-06-10T00:30:09;2.92;;;1.20;;
50531;SDS011;36483;37.396;-122.212;2023-06-10T00:32:35;1.65;;;0.95;;
50531;SDS011;36483;37.396;-122.212;2023-06-10T00:35:02;2.92;;;1.02;;
50531;SDS011;36483;37.396;-122.212;2023-06-10T00:37:32;1.35;;;0.80;;
50531;SDS011;36483;37.396;-122.212;2023-06-10T00:40:01;1.27;;;0.90;;
50531;SDS011;36483;37.396;-122.212;2023-06-10T00:42:28;1.75;;;1.10;;
50531;SDS011;36483;37.396;-122.212;2023-06-10T00:44:54;4.93;;;1.00;;
50531;SDS011;36483;37.396;-122.212;2023-06-10T00:47:21;2.85;;;0.93;;
50531;SDS011;36483;37.396;-122.212;2023-06-10T00:49:47;2.00;;;0.95;;
50531;SDS011;36483;37.396;-122.212;2023-06-10T00:52:15;2.20;;;1.00;;
50531;SDS011;36483;37.396;-122.212;2023-06-10T00:54:42;2.80;;;0.90;;
50531;SDS011;36483;37.396;-122.212;2023-06-10T00:57:10;2.88;;;1.00;;
50531;SDS011;36483;37.396;-122.212;2023-06-10T00:59:36;2.10;;;0.80;;
50531;SDS011;36483;37.396;-122.212;2023-06-10T01:02:03;2.22;;;1.00;;
50531;SDS011;36483;37.396;-122.212;2023-06-10T01:04:29;2.08;;;0.85;;
50531;SDS011;36483;37.396;-122.212;2023-06-10T01:06:58;2.22;;;0.85;;
50531;SDS011;36483;37.396;-122.212;2023-06-10T01:12:52;2.65;;;1.20;;
50531;SDS011;36483;37.396;-122.212;2023-06-10T01:14:55;5.15;;;1.13;;
50531;SDS011;36483;37.396;-122.212;2023-06-10T01:17:21;3.08;;;0.98;;
50531;SDS011;36483;37.396;-122.212;2023-06-10T01:19:54;4.30;;;1.08;;
50531;SDS011;36483;37.396;-122.212;2023-06-10T01:22:21;2.78;;;1.00;;
50531;SDS011;36483;37.396;-122.212;2023-06-10T01:24:54;1.80;;;1.25;;
50531;SDS011;36483;37.396;-122.212;2023-06-10T01:27:25;1.80;;;1.00;;
50531;SDS011;36483;37.396;-122.212;2023-06-10T01:29:55;2.50;;;1.13;;
50531;SDS011;36483;37.396;-122.212;2023-06-10T01:32:37;3.42;;;1.23;;
50531;SDS011;36483;37.396;-122.212;2023-06-10T01:35:06;1.90;;;1.00;;
50531;SDS011;36483;37.396;-122.212;2023-06-10T01:37:34;2.60;;;0.90;;
50531;SDS011;36483;37.396;-122.212;2023-06-10T01:40:00;2.33;;;1.10;;
50531;SDS011;36483;37.396;-122.212;2023-06-10T01:42:31;2.25;;;1.13;;
50531;SDS011;36483;37.396;-122.212;2023-06-10T01:44:58;1.42;;;0.80;;
50531;SDS011;36483;37.396;-122.212;2023-06-10T01:47:24;1.73;;;1.20;;
50531;SDS011;36483;37.396;-122.212;2023-06-10T01:49:50;1.88;;;1.00;;
50531;SDS011;36483;37.396;-122.212;2023-06-10T01:52:17;3.35;;;1.10;;
50531;SDS011;36483;37.396;-122.212;2023-06-10T01:54:43;2.03;;;1.30;;
50531;SDS011;36483;37.396;-122.212;2023-06-10T01:57:09;1.55;;;0.90;;
50531;SDS011;36483;37.396;-122.212;2023-06-10T01:59:36;2.28;;;1.08;;
50531;SDS011;36483;37.396;-122.212;2023-06-10T02:02:03;1.75;;;0.80;;
50531;SDS011;36483;37.396;-122.212;2023-06-10T02:04:30;1.50;;;1.00;;
50531;SDS011;36483;37.396;-122.212;2023-06-10T02:06:57;1.98;;;0.90;;
50531;SDS011;36483;37.396;-122.212;2023-06-10T02:09:23;2.03;;;1.13;;
50531;SDS011;36483;37.396;-122.212;2023-06-10T02:11:49;2.60;;;1.30;;
50531;SDS011;36483;37.396;-122.212;2023-06-10T02:14:15;3.47;;;1.23;;
50531;SDS011;36483;37.396;-122.212;2023-06-10T02:16:42;2.53;;;0.90;;
50531;SDS011;36483;37.396;-122.212;2023-06-10T02:19:10;2.50;;;1.10;;
50531;SDS011;36483;37.396;-122.212;2023-06-10T02:21:37;1.70;;;1.00;;
50531;SDS011;36483;37.396;-122.212;2023-06-10T02:24:04;3.17;;;1.10;;
50531;SDS011;36483;37.396;-122.212;2023-06-10T02:26:30;1.88;;;0.93;;
50531;SDS011;36483;37.396;-122.212;2023-06-10T02:28:57;1.52;;;0.82;;
50531;SDS011;36483;37.396;-122.212;2023-06-10T02:31:23;3.28;;;1.20;;
50531;SDS011;36483;37.396;-122.212;2023-06-10T02:33:50;3.03;;;0.93;;
50531;SDS011;36483;37.396;-122.212;2023-06-10T02:36:16;1.63;;;0.90;;
50531;SDS011;36483;37.396;-122.212;2023-06-10T02:38:42;2.28;;;0.90;;
50531;SDS011;36483;37.396;-122.212;2023-06-10T02:41:08;1.20;;;0.75;;
50531;SDS011;36483;37.396;-122.212;2023-06-10T02:43:35;5.68;;;1.17;;
50531;SDS011;36483;37.396;-122.212;2023-06-10T02:46:01;1.85;;;0.90;;
50531;SDS011;36483;37.396;-122.212;2023-06-10T02:48:27;2.50;;;0.90;;
50531;SDS011;36483;37.396;-122.212;2023-06-10T02:50:54;2.92;;;0.73;;
50531;SDS011;36483;37.396;-122.212;2023-06-10T02:53:21;2.08;;;0.80;;
50531;SDS011;36483;37.396;-122.212;2023-06-10T02:55:47;1.90;;;0.75;;
50531;SDS011;36483;37.396;-122.212;2023-06-10T02:58:13;1.90;;;0.80;;
50531;SDS011;36483;37.396;-122.212;2023-06-10T03:01:00;0.82;;;0.60;;
50531;SDS011;36483;37.396;-122.212;2023-06-10T03:03:26;1.13;;;0.70;;
50531;SDS011;36483;37.396;-122.212;2023-06-10T03:05:52;1.40;;;0.70;;
50531;SDS011;36483;37.396;-122.212;2023-06-10T03:08:19;1.08;;;0.60;;
50531;SDS011;36483;37.396;-122.212;2023-06-10T03:10:45;1.70;;;0.88;;
50531;SDS011;36483;37.396;-122.212;2023-06-10T03:13:11;1.73;;;0.77;;
50531;SDS011;36483;37.396;-122.212;2023-06-10T03:15:37;1.25;;;0.63;;
50531;SDS011;36483;37.396;-122.212;2023-06-10T03:18:06;1.98;;;0.73;;
50531;SDS011;36483;37.396;-122.212;2023-06-10T03:20:33;2.17;;;0.82;;
50531;SDS011;36483;37.396;-122.212;2023-06-10T03:23:02;1.40;;;0.63;;
50531;SDS011;36483;37.396;-122.212;2023-06-10T03:25:31;1.42;;;0.70;;
50531;SDS011;36483;37.396;-122.212;2023-06-10T03:27:57;1.88;;;0.80;;
50531;SDS011;36483;37.396;-122.212;2023-06-10T03:30:23;1.73;;;0.80;;
50531;SDS011;36483;37.396;-122.212;2023-06-10T03:32:50;2.45;;;0.77;;
50531;SDS011;36483;37.396;-122.212;2023-06-10T03:35:16;1.02;;;0.73;;
50531;SDS011;36483;37.396;-122.212;2023-06-10T03:37:42;2.63;;;0.68;;
50531;SDS011;36483;37.396;-122.212;2023-06-10T03:40:09;2.53;;;0.80;;
50531;SDS011;36483;37.396;-122.212;2023-06-10T03:42:35;0.77;;;0.57;;
50531;SDS011;36483;37.396;-122.212;2023-06-10T03:45:02;2.88;;;0.82;;
50531;SDS011;36483;37.396;-122.212;2023-06-10T03:47:35;1.95;;;0.82;;
50531;SDS011;36483;37.396;-122.212;2023-06-10T03:50:04;1.75;;;0.80;;
50531;SDS011;36483;37.396;-122.212;2023-06-10T03:52:31;1.15;;;0.60;;
50531;SDS011;36483;37.396;-122.212;2023-06-10T03:54:57;1.05;;;0.60;;
50531;SDS011;36483;37.396;-122.212;2023-06-10T03:57:23;1.02;;;0.60;;
50531;SDS011;36483;37.396;-122.212;2023-06-10T03:59:50;2.42;;;0.50;;
50531;SDS011;36483;37.396;-122.212;2023-06-10T04:02:16;2.22;;;0.60;;
50531;SDS011;36483;37.396;-122.212;2023-06-10T04:04:42;0.73;;;0.40;;
50531;SDS011;36483;37.396;-122.212;2023-06-10T04:07:08;2.20;;;0.50;;
50531;SDS011;36483;37.396;-122.212;2023-06-10T04:09:34;0.80;;;0.50;;
50531;SDS011;36483;37.396;-122.212;2023-06-10T04:12:01;1.75;;;0.60;;
50531;SDS011;36483;37.396;-122.212;2023-06-10T04:14:28;1.80;;;0.50;;
50531;SDS011;36483;37.396;-122.212;2023-06-10T04:16:54;0.70;;;0.60;;
50531;SDS011;36483;37.396;-122.212;2023-06-10T04:19:20;0.70;;;0.45;;
50531;SDS011;36483;37.396;-122.212;2023-06-10T04:21:46;1.75;;;0.50;;
50531;SDS011;36483;37.396;-122.212;2023-06-10T04:24:12;0.70;;;0.50;;
50531;SDS011;36483;37.396;-122.212;2023-06-10T04:26:38;0.57;;;0.40;;
50531;SDS011;36483;37.396;-122.212;2023-06-10T04:29:05;0.82;;;0.50;;
50531;SDS011;36483;37.396;-122.212;2023-06-10T04:31:31;0.63;;;0.40;;
50531;SDS011;36483;37.396;-122.212;2023-06-10T04:33:57;1.25;;;0.50;;
50531;SDS011;36483;37.396;-122.212;2023-06-10T04:36:26;1.92;;;0.45;;
50531;SDS011;36483;37.396;-122.212;2023-06-10T04:38:52;1.17;;;0.50;;
50531;SDS011;36483;37.396;-122.212;2023-06-10T04:41:18;0.60;;;0.50;;
50531;SDS011;36483;37.396;-122.212;2023-06-10T04:43:44;0.98;;;0.50;;
50531;SDS011;36483;37.396;-122.212;2023-06-10T04:46:11;0.95;;;0.47;;
50531;SDS011;36483;37.396;-122.212;2023-06-10T04:48:38;1.13;;;0.50;;
50531;SDS011;36483;37.396;-122.212;2023-06-10T04:51:05;1.80;;;0.63;;
50531;SDS011;36483;37.396;-122.212;2023-06-10T04:53:31;1.48;;;0.40;;
50531;SDS011;36483;37.396;-122.212;2023-06-10T04:56:17;0.80;;;0.43;;
50531;SDS011;36483;37.396;-122.212;2023-06-10T04:58:43;0.90;;;0.65;;
50531;SDS011;36483;37.396;-122.212;2023-06-10T05:01:10;0.40;;;0.35;;
50531;SDS011;36483;37.396;-122.212;2023-06-10T05:03:36;0.70;;;0.40;;
50531;SDS011;36483;37.396;-122.212;2023-06-10T05:06:02;0.52;;;0.40;;
50531;SDS011;36483;37.396;-122.212;2023-06-10T05:08:28;0.75;;;0.47;;
50531;SDS011;36483;37.396;-122.212;2023-06-10T05:10:54;0.75;;;0.40;;
50531;SDS011;36483;37.396;-122.212;2023-06-10T05:13:20;0.95;;;0.50;;
50531;SDS011;36483;37.396;-122.212;2023-06-10T05:15:46;0.93;;;0.47;;
50531;SDS011;36483;37.396;-122.212;2023-06-10T05:18:13;2.28;;;0.50;;
50531;SDS011;36483;37.396;-122.212;2023-06-10T05:20:39;0.40;;;0.40;;
50531;SDS011;36483;37.396;-122.212;2023-06-10T05:23:05;0.55;;;0.30;;
50531;SDS011;36483;37.396;-122.212;2023-06-10T05:25:32;0.40;;;0.30;;
50531;SDS011;36483;37.396;-122.212;2023-06-10T05:27:58;0.57;;;0.50;;
50531;SDS011;36483;37.396;-122.212;2023-06-10T05:30:24;0.77;;;0.50;;
50531;SDS011;36483;37.396;-122.212;2023-06-10T05:32:51;2.97;;;0.50;;
50531;SDS011;36483;37.396;-122.212;2023-06-10T05:35:18;0.30;;;0.30;;
50531;SDS011;36483;37.396;-122.212;2023-06-10T05:37:44;0.55;;;0.30;;
50531;SDS011;36483;37.396;-122.212;2023-06-10T05:40:10;0.70;;;0.40;;
50531;SDS011;36483;37.396;-122.212;2023-06-10T05:42:37;0.40;;;0.40;;
50531;SDS011;36483;37.396;-122.212;2023-06-10T05:45:05;0.65;;;0.50;;
50531;SDS011;36483;37.396;-122.212;2023-06-10T05:47:32;1.92;;;0.47;;
50531;SDS011;36483;37.396;-122.212;2023-06-10T05:49:58;0.45;;;0.30;;
50531;SDS011;36483;37.396;-122.212;2023-06-10T05:52:25;0.80;;;0.47;;
50531;SDS011;36483;37.396;-122.212;2023-06-10T05:54:51;1.00;;;0.45;;
50531;SDS011;36483;37.396;-122.212;2023-06-10T05:57:17;1.35;;;0.40;;
50531;SDS011;36483;37.396;-122.212;2023-06-10T05:59:43;1.27;;;0.50;;
50531;SDS011;36483;37.396;-122.212;2023-06-10T06:02:09;1.35;;;0.52;;
50531;SDS011;36483;37.396;-122.212;2023-06-10T06:04:36;0.65;;;0.35;;
50531;SDS011;36483;37.396;-122.212;2023-06-10T06:07:02;0.30;;;0.30;;
50531;SDS011;36483;37.396;-122.212;2023-06-10T06:09:29;3.00;;;0.50;;
50531;SDS011;36483;37.396;-122.212;2023-06-10T06:11:55;0.50;;;0.40;;
50531;SDS011;36483;37.396;-122.212;2023-06-10T06:14:21;2.25;;;0.60;;
50531;SDS011;36483;37.396;-122.212;2023-06-10T06:16:47;0.85;;;0.40;;
50531;SDS011;36483;37.396;-122.212;2023-06-10T06:19:13;1.75;;;0.60;;
50531;SDS011;36483;37.396;-122.212;2023-06-10T06:21:41;1.95;;;0.60;;
50531;SDS011;36483;37.396;-122.212;2023-06-10T06:24:07;1.75;;;0.50;;
50531;SDS011;36483;37.396;-122.212;2023-06-10T06:26:33;0.80;;;0.55;;
50531;SDS011;36483;37.396;-122.212;2023-06-10T06:28:59;1.33;;;0.50;;
50531;SDS011;36483;37.396;-122.212;2023-06-10T06:31:25;0.75;;;0.50;;
50531;SDS011;36483;37.396;-122.212;2023-06-10T06:33:51;1.13;;;0.68;;
50531;SDS011;36483;37.396;-122.212;2023-06-10T06:36:17;1.15;;;0.68;;
50531;SDS011;36483;37.396;-122.212;2023-06-10T06:38:44;2.08;;;0.70;;
50531;SDS011;36483;37.396;-122.212;2023-06-10T06:41:10;0.70;;;0.50;;
50531;SDS011;36483;37.396;-122.212;2023-06-10T06:43:36;2.13;;;0.55;;
50531;SDS011;36483;37.396;-122.212;2023-06-10T06:46:02;1.55;;;0.50;;
50531;SDS011;36483;37.396;-122.212;2023-06-10T06:48:28;0.70;;;0.50;;
50531;SDS011;36483;37.396;-122.212;2023-06-10T06:50:54;1.50;;;0.68;;
50531;SDS011;36483;37.396;-122.212;2023-06-10T06:53:21;0.93;;;0.70;;
50531;SDS011;36483;37.396;-122.212;2023-06-10T06:55:47;0.88;;;0.60;;
50531;SDS011;36483;37.396;-122.212;2023-06-10T06:58:14;1.38;;;0.68;;
50531;SDS011;36483;37.396;-122.212;2023-06-10T07:00:40;0.98;;;0.77;;
50531;SDS011;36483;37.396;-122.212;2023-06-10T07:03:06;0.88;;;0.60;;
50531;SDS011;36483;37.396;-122.212;2023-06-10T07:05:32;2.53;;;0.60;;
50531;SDS011;36483;37.396;-122.212;2023-06-10T07:07:58;1.33;;;0.73;;
50531;SDS011;36483;37.396;-122.212;2023-06-10T07:10:25;1.33;;;0.68;;
50531;SDS011;36483;37.396;-122.212;2023-06-10T07:12:51;1.85;;;0.90;;
50531;SDS011;36483;37.396;-122.212;2023-06-10T07:15:17;3.47;;;0.90;;
50531;SDS011;36483;37.396;-122.212;2023-06-10T07:17:44;1.23;;;0.70;;
50531;SDS011;36483;37.396;-122.212;2023-06-10T07:20:10;2.30;;;0.93;;
50531;SDS011;36483;37.396;-122.212;2023-06-10T07:22:36;3.80;;;0.88;;
50531;SDS011;36483;37.396;-122.212;2023-06-10T07:25:04;1.60;;;0.82;;
50531;SDS011;36483;37.396;-122.212;2023-06-10T07:27:31;1.35;;;0.80;;
50531;SDS011;36483;37.396;-122.212;2023-06-10T07:29:57;1.35;;;0.93;;
50531;SDS011;36483;37.396;-122.212;2023-06-10T07:32:23;1.98;;;0.98;;
50531;SDS011;36483;37.396;-122.212;2023-06-10T07:34:50;1.35;;;0.70;;
50531;SDS011;36483;37.396;-122.212;2023-06-10T07:37:16;1.67;;;0.80;;
50531;SDS011;36483;37.396;-122.212;2023-06-10T07:39:44;1.98;;;1.10;;
50531;SDS011;36483;37.396;-122.212;2023-06-10T07:42:11;1.83;;;0.90;;
50531;SDS011;36483;37.396;-122.212;2023-06-10T07:44:37;1.92;;;0.88;;
50531;SDS011;36483;37.396;-122.212;2023-06-10T07:47:03;2.00;;;0.70;;
50531;SDS011;36483;37.396;-122.212;2023-06-10T07:49:29;0.93;;;0.70;;
50531;SDS011;36483;37.396;-122.212;2023-06-10T07:51:56;1.77;;;0.90;;
50531;SDS011;36483;37.396;-122.212;2023-06-10T07:54:22;1.13;;;0.70;;
50531;SDS011;36483;37.396;-122.212;2023-06-10T07:56:48;1.90;;;0.95;;
50531;SDS011;36483;37.396;-122.212;2023-06-10T07:59:15;2.80;;;0.90;;
50531;SDS011;36483;37.396;-122.212;2023-06-10T08:01:42;1.80;;;0.80;;
50531;SDS011;36483;37.396;-122.212;2023-06-10T08:04:08;1.42;;;0.90;;
50531;SDS011;36483;37.396;-122.212;2023-06-10T08:06:34;1.48;;;1.00;;
50531;SDS011;36483;37.396;-122.212;2023-06-10T08:09:02;2.28;;;1.00;;
50531;SDS011;36483;37.396;-122.212;2023-06-10T08:11:28;1.90;;;0.85;;
50531;SDS011;36483;37.396;-122.212;2023-06-10T08:13:55;2.42;;;0.93;;
50531;SDS011;36483;37.396;-122.212;2023-06-10T08:16:21;1.67;;;0.95;;
50531;SDS011;36483;37.396;-122.212;2023-06-10T08:18:48;3.35;;;0.90;;
50531;SDS011;36483;37.396;-122.212;2023-06-10T08:21:15;2.63;;;1.00;;
50531;SDS011;36483;37.396;-122.212;2023-06-10T08:23:41;3.00;;;1.05;;
50531;SDS011;36483;37.396;-122.212;2023-06-10T08:26:09;2.40;;;1.00;;
50531;SDS011;36483;37.396;-122.212;2023-06-10T08:28:35;2.22;;;1.25;;
50531;SDS011;36483;37.396;-122.212;2023-06-10T08:31:01;2.58;;;0.90;;
50531;SDS011;36483;37.396;-122.212;2023-06-10T08:33:27;3.15;;;0.90;;
50531;SDS011;36483;37.396;-122.212;2023-06-10T08:35:53;2.67;;;1.00;;
50531;SDS011;36483;37.396;-122.212;2023-06-10T08:38:19;2.03;;;0.90;;
50531;SDS011;36483;37.396;-122.212;2023-06-10T08:40:46;3.05;;;0.80;;
50531;SDS011;36483;37.396;-122.212;2023-06-10T08:43:32;2.03;;;0.85;;
50531;SDS011;36483;37.396;-122.212;2023-06-10T08:46:20;1.05;;;0.80;;
50531;SDS011;36483;37.396;-122.212;2023-06-10T08:48:46;2.65;;;1.10;;
50531;SDS011;36483;37.396;-122.212;2023-06-10T08:51:14;2.25;;;0.80;;
50531;SDS011;36483;37.396;-122.212;2023-06-10T08:53:47;2.30;;;1.10;;
50531;SDS011;36483;37.396;-122.212;2023-06-10T08:56:16;2.20;;;0.95;;
50531;SDS011;36483;37.396;-122.212;2023-06-10T08:58:43;1.40;;;0.90;;
50531;SDS011;36483;37.396;-122.212;2023-06-10T09:01:09;1.60;;;1.00;;
50531;SDS011;36483;37.396;-122.212;2023-06-10T09:03:37;2.40;;;1.10;;
50531;SDS011;36483;37.396;-122.212;2023-06-10T09:06:04;1.70;;;0.80;;
50531;SDS011;36483;37.396;-122.212;2023-06-10T09:08:33;1.00;;;0.70;;
50531;SDS011;36483;37.396;-122.212;2023-06-10T09:11:00;2.30;;;0.98;;
50531;SDS011;36483;37.396;-122.212;2023-06-10T09:13:26;1.38;;;0.80;;
50531;SDS011;36483;37.396;-122.212;2023-06-10T09:15:52;2.25;;;1.20;;
50531;SDS011;36483;37.396;-122.212;2023-06-10T09:18:21;2.08;;;1.08;;
50531;SDS011;36483;37.396;-122.212;2023-06-10T09:20:48;1.70;;;0.82;;
50531;SDS011;36483;37.396;-122.212;2023-06-10T09:23:15;2.90;;;1.35;;
50531;SDS011;36483;37.396;-122.212;2023-06-10T09:25:41;2.35;;;0.90;;
50531;SDS011;36483;37.396;-122.212;2023-06-10T09:28:14;1.98;;;0.82;;
50531;SDS011;36483;37.396;-122.212;2023-06-10T09:30:40;2.00;;;0.75;;
50531;SDS011;36483;37.396;-122.212;2023-06-10T09:33:11;2.75;;;1.05;;
50531;SDS011;36483;37.396;-122.212;2023-06-10T09:35:44;3.72;;;0.98;;
50531;SDS011;36483;37.396;-122.212;2023-06-10T09:38:12;2.20;;;0.95;;
50531;SDS011;36483;37.396;-122.212;2023-06-10T09:40:52;2.38;;;1.00;;
50531;SDS011;36483;37.396;-122.212;2023-06-10T09:43:19;2.45;;;1.20;;
50531;SDS011;36483;37.396;-122.212;2023-06-10T09:45:49;2.30;;;0.95;;
50531;SDS011;36483;37.396;-122.212;2023-06-10T09:48:18;3.22;;;1.30;;
50531;SDS011;36483;37.396;-122.212;2023-06-10T09:50:45;2.22;;;1.10;;
50531;SDS011;36483;37.396;-122.212;2023-06-10T09:53:11;1.90;;;0.82;;
50531;SDS011;36483;37.396;-122.212;2023-06-10T09:55:38;2.50;;;1.10;;
50531;SDS011;36483;37.396;-122.212;2023-06-10T09:58:05;2.30;;;1.08;;
50531;SDS011;36483;37.396;-122.212;2023-06-10T10:00:32;2.80;;;1.00;;
50531;SDS011;36483;37.396;-122.212;2023-06-10T10:02:58;2.70;;;1.00;;
50531;SDS011;36483;37.396;-122.212;2023-06-10T10:05:25;1.38;;;1.00;;
50531;SDS011;36483;37.396;-122.212;2023-06-10T10:07:53;2.53;;;1.02;;
50531;SDS011;36483;37.396;-122.212;2023-06-10T10:10:21;2.58;;;1.05;;
50531;SDS011;36483;37.396;-122.212;2023-06-10T10:12:48;4.63;;;1.20;;
50531;SDS011;36483;37.396;-122.212;2023-06-10T10:15:17;2.35;;;1.17;;
50531;SDS011;36483;37.396;-122.212;2023-06-10T10:17:48;3.83;;;1.27;;
50531;SDS011;36483;37.396;-122.212;2023-06-10T10:20:20;3.50;;;1.50;;
50531;SDS011;36483;37.396;-122.212;2023-06-10T10:22:47;3.28;;;1.15;;
50531;SDS011;36483;37.396;-122.212;2023-06-10T10:25:23;3.10;;;1.40;;
50531;SDS011;36483;37.396;-122.212;2023-06-10T10:27:52;2.22;;;1.27;;
50531;SDS011;36483;37.396;-122.212;2023-06-10T10:30:22;2.13;;;1.00;;
50531;SDS011;36483;37.396;-122.212;2023-06-10T10:35:48;4.07;;;1.23;;
50531;SDS011;36483;37.396;-122.212;2023-06-10T10:38:15;2.97;;;1.35;;
50531;SDS011;36483;37.396;-122.212;2023-06-10T10:40:41;3.25;;;1.30;;
50531;SDS011;36483;37.396;-122.212;2023-06-10T10:43:08;1.98;;;1.20;;
50531;SDS011;36483;37.396;-122.212;2023-06-10T10:45:35;3.38;;;1.20;;
50531;SDS011;36483;37.396;-122.212;2023-06-10T10:48:04;1.95;;;1.20;;
50531;SDS011;36483;37.396;-122.212;2023-06-10T10:50:34;2.20;;;1.23;;
50531;SDS011;36483;37.396;-122.212;2023-06-10T10:53:04;4.25;;;1.48;;
50531;SDS011;36483;37.396;-122.212;2023-06-10T10:55:30;2.88;;;1.50;;
50531;SDS011;36483;37.396;-122.212;2023-06-10T10:58:04;2.92;;;1.40;;
50531;SDS011;36483;37.396;-122.212;2023-06-10T11:00:30;6.82;;;1.50;;
50531;SDS011;36483;37.396;-122.212;2023-06-10T11:02:58;5.95;;;1.60;;
50531;SDS011;36483;37.396;-122.212;2023-06-10T11:05:47;2.28;;;1.30;;
50531;SDS011;36483;37.396;-122.212;2023-06-10T11:08:15;3.92;;;1.55;;
50531;SDS011;36483;37.396;-122.212;2023-06-10T11:11:02;6.28;;;1.38;;
50531;SDS011;36483;37.396;-122.212;2023-06-10T11:16:29;3.25;;;1.50;;
50531;SDS011;36483;37.396;-122.212;2023-06-10T11:18:56;2.80;;;1.45;;
50531;SDS011;36483;37.396;-122.212;2023-06-10T11:21:25;3.25;;;1.55;;
50531;SDS011;36483;37.396;-122.212;2023-06-10T11:23:51;2.80;;;1.30;;
50531;SDS011;36483;37.396;-122.212;2023-06-10T11:29:08;2.45;;;1.50;;
50531;SDS011;36483;37.396;-122.212;2023-06-10T11:31:38;3.08;;;1.58;;
50531;SDS011;36483;37.396;-122.212;2023-06-10T11:34:06;4.30;;;1.30;;
50531;SDS011;36483;37.396;-122.212;2023-06-10T11:36:34;3.63;;;1.50;;
50531;SDS011;36483;37.396;-122.212;2023-06-10T11:39:03;2.63;;;1.45;;
50531;SDS011;36483;37.396;-122.212;2023-06-10T11:41:31;2.30;;;1.30;;
50531;SDS011;36483;37.396;-122.212;2023-06-10T11:44:16;4.50;;;1.40;;
50531;SDS011;36483;37.396;-122.212;2023-06-10T11:46:44;3.53;;;1.50;;
50531;SDS011;36483;37.396;-122.212;2023-06-10T11:49:11;3.15;;;1.30;;
50531;SDS011;36483;37.396;-122.212;2023-06-10T11:51:38;2.25;;;1.40;;
50531;SDS011;36483;37.396;-122.212;2023-06-10T11:54:06;2.13;;;1.38;;
50531;SDS011;36483;37.396;-122.212;2023-06-10T11:56:34;3.00;;;1.50;;
50531;SDS011;36483;37.396;-122.212;2023-06-10T11:59:02;2.47;;;1.52;;
50531;SDS011;36483;37.396;-122.212;2023-06-10T12:01:33;2.78;;;1.55;;
50531;SDS011;36483;37.396;-122.212;2023-06-10T12:04:06;3.08;;;1.55;;
50531;SDS011;36483;37.396;-122.212;2023-06-10T12:12:03;3.80;;;1.48;;
50531;SDS011;36483;37.396;-122.212;2023-06-10T12:14:49;5.72;;;1.77;;
50531;SDS011;36483;37.396;-122.212;2023-06-10T12:17:43;4.70;;;1.77;;
50531;SDS011;36483;37.396;-122.212;2023-06-10T12:20:09;4.78;;;1.65;;
50531;SDS011;36483;37.396;-122.212;2023-06-10T12:22:50;4.95;;;1.63;;
50531;SDS011;36483;37.396;-122.212;2023-06-10T12:25:16;3.20;;;1.70;;
50531;SDS011;36483;37.396;-122.212;2023-06-10T12:27:51;3.80;;;1.60;;
50531;SDS011;36483;37.396;-122.212;2023-06-10T12:30:19;2.28;;;1.48;;
50531;SDS011;36483;37.396;-122.212;2023-06-10T12:32:46;3.97;;;1.40;;
50531;SDS011;36483;37.396;-122.212;2023-06-10T12:35:13;3.83;;;1.50;;
50531;SDS011;36483;37.396;-122.212;2023-06-10T12:37:43;2.40;;;1.50;;
50531;SDS011;36483;37.396;-122.212;2023-06-10T12:40:28;3.05;;;1.70;;
50531;SDS011;36483;37.396;-122.212;2023-06-10T12:42:56;2.00;;;1.33;;
50531;SDS011;36483;37.396;-122.212;2023-06-10T12:45:33;3.92;;;1.67;;
50531;SDS011;36483;37.396;-122.212;2023-06-10T12:48:07;4.47;;;1.70;;
50531;SDS011;36483;37.396;-122.212;2023-06-10T12:50:41;4.05;;;1.83;;
50531;SDS011;36483;37.396;-122.212;2023-06-10T12:53:09;4.00;;;1.80;;
50531;SDS011;36483;37.396;-122.212;2023-06-10T12:55:40;4.45;;;1.80;;
50531;SDS011;36483;37.396;-122.212;2023-06-10T12:58:06;4.50;;;2.15;;
50531;SDS011;36483;37.396;-122.212;2023-06-10T13:00:32;3.83;;;1.80;;
50531;SDS011;36483;37.396;-122.212;2023-06-10T13:03:00;4.15;;;1.98;;
50531;SDS011;36483;37.396;-122.212;2023-06-10T13:05:27;6.50;;;2.28;;
50531;SDS011;36483;37.396;-122.212;2023-06-10T13:07:54;5.15;;;2.20;;
50531;SDS011;36483;37.396;-122.212;2023-06-10T13:10:21;4.00;;;2.40;;
50531;SDS011;36483;37.396;-122.212;2023-06-10T13:12:47;5.03;;;2.22;;
50531;SDS011;36483;37.396;-122.212;2023-06-10T13:15:14;4.00;;;2.05;;
50531;SDS011;36483;37.396;-122.212;2023-06-10T13:17:40;5.65;;;2.30;;
50531;SDS011;36483;37.396;-122.212;2023-06-10T13:20:06;4.32;;;2.33;;
50531;SDS011;36483;37.396;-122.212;2023-06-10T13:22:34;5.80;;;2.40;;
50531;SDS011;36483;37.396;-122.212;2023-06-10T13:25:05;9.93;;;2.80;;
50531;SDS011;36483;37.396;-122.212;2023-06-10T13:27:34;5.72;;;2.30;;
50531;SDS011;36483;37.396;-122.212;2023-06-10T13:30:04;6.18;;;2.50;;
50531;SDS011;36483;37.396;-122.212;2023-06-10T13:32:35;5.53;;;2.38;;
50531;SDS011;36483;37.396;-122.212;2023-06-10T13:35:01;6.75;;;2.47;;
50531;SDS011;36483;37.396;-122.212;2023-06-10T13:37:28;4.63;;;2.85;;
50531;SDS011;36483;37.396;-122.212;2023-06-10T13:39:54;7.20;;;2.60;;
50531;SDS011;36483;37.396;-122.212;2023-06-10T13:42:21;6.10;;;2.47;;
50531;SDS011;36483;37.396;-122.212;2023-06-10T13:44:47;5.18;;;2.63;;
50531;SDS011;36483;37.396;-122.212;2023-06-10T13:47:14;6.28;;;2.65;;
50531;SDS011;36483;37.396;-122.212;2023-06-10T13:49:40;5.50;;;2.45;;
50531;SDS011;36483;37.396;-122.212;2023-06-10T13:52:07;6.20;;;2.92;;
50531;SDS011;36483;37.396;-122.212;2023-06-10T13:54:33;6.15;;;2.60;;
50531;SDS011;36483;37.396;-122.212;2023-06-10T13:57:03;6.28;;;2.47;;
50531;SDS011;36483;37.396;-122.212;2023-06-10T13:59:29;6.10;;;2.65;;
50531;SDS011;36483;37.396;-122.212;2023-06-10T14:01:56;5.25;;;2.35;;
50531;SDS011;36483;37.396;-122.212;2023-06-10T14:04:22;5.07;;;2.50;;
50531;SDS011;36483;37.396;-122.212;2023-06-10T14:06:48;6.75;;;2.40;;
50531;SDS011;36483;37.396;-122.212;2023-06-10T14:09:14;4.82;;;2.45;;
50531;SDS011;36483;37.396;-122.212;2023-06-10T14:11:41;5.88;;;2.35;;
50531;SDS011;36483;37.396;-122.212;2023-06-10T14:14:08;4.88;;;2.45;;
50531;SDS011;36483;37.396;-122.212;2023-06-10T14:16:34;4.25;;;2.40;;
50531;SDS011;36483;37.396;-122.212;2023-06-10T14:19:00;4.38;;;2.30;;
50531;SDS011;36483;37.396;-122.212;2023-06-10T14:21:26;3.28;;;2.17;;
50531;SDS011;36483;37.396;-122.212;2023-06-10T14:23:52;3.60;;;2.10;;
50531;SDS011;36483;37.396;-122.212;2023-06-10T14:26:19;3.88;;;2.17;;
50531;SDS011;36483;37.396;-122.212;2023-06-10T14:28:47;5.47;;;2.30;;